createdAt,value
2018-08-30T00:02:22.611Z,100217.35
2018-08-30T00:04:51.026Z,100217.36
2018-08-30T00:07:19.498Z,100225.54
2018-08-30T00:09:47.965Z,100221.17
2018-08-30T00:12:16.397Z,100227.46
2018-08-30T00:14:44.926Z,100237.55
2018-08-30T00:17:13.385Z,100224.42
2018-08-30T00:19:41.817Z,100229.09
2018-08-30T00:22:10.264Z,100233.98
2018-08-30T00:24:38.839Z,100242.47
2018-08-30T00:27:07.297Z,100252.55
2018-08-30T00:29:35.867Z,100240.80
2018-08-30T00:32:04.327Z,100253.70
2018-08-30T00:34:32.780Z,100269.27
2018-08-30T00:37:01.233Z,100264.88
2018-08-30T00:39:29.660Z,100271.45
2018-08-30T00:41:58.894Z,100278.00
2018-08-30T00:44:27.329Z,100280.97
2018-08-30T00:46:55.766Z,100273.60
2018-08-30T00:49:24.205Z,100280.19
2018-08-30T00:51:52.667Z,100279.34
2018-08-30T00:54:21.129Z,100277.16
2018-08-30T00:56:49.624Z,100278.25
2018-08-30T00:59:18.053Z,100266.77
2018-08-30T01:01:46.509Z,100276.34
2018-08-30T01:04:14.954Z,100288.94
2018-08-30T01:06:43.366Z,100287.56
2018-08-30T01:09:11.797Z,100294.39
2018-08-30T01:11:40.257Z,100284.01
2018-08-30T01:14:08.712Z,100291.13
2018-08-30T01:16:37.139Z,100284.55
2018-08-30T01:19:05.621Z,100289.48
2018-08-30T01:21:34.053Z,100297.98
2018-08-30T01:24:02.511Z,100294.41
2018-08-30T01:26:30.932Z,100308.36
2018-08-30T01:28:59.390Z,100309.72
2018-08-30T01:31:27.878Z,100307.53
2018-08-30T01:33:56.307Z,100313.83
2018-08-30T01:36:24.757Z,100308.08
2018-08-30T01:38:53.238Z,100303.45
2018-08-30T01:41:21.690Z,100309.73
2018-08-30T01:43:50.150Z,100315.20
2018-08-30T01:46:18.630Z,100316.31
2018-08-30T01:48:47.075Z,100314.13
2018-08-30T01:51:15.532Z,100320.91
2018-08-30T01:53:43.985Z,100316.81
2018-08-30T01:56:12.445Z,100331.30
2018-08-30T01:58:40.939Z,100323.64
2018-08-30T02:01:09.354Z,100330.76
2018-08-30T02:03:37.807Z,100328.33
2018-08-30T02:06:06.255Z,100332.97
2018-08-30T02:08:34.701Z,100345.27
2018-08-30T02:11:03.137Z,100346.63
2018-08-30T02:13:31.706Z,100354.57
2018-08-30T02:16:00.097Z,100351.30
2018-08-30T02:18:28.573Z,100352.09
2018-08-30T02:20:57.021Z,100354.28
2018-08-30T02:23:25.538Z,100357.02
2018-08-30T02:25:54.190Z,100364.12
2018-08-30T02:28:22.666Z,100354.57
2018-08-30T02:30:51.149Z,100359.75
2018-08-30T02:33:19.738Z,100365.75
2018-08-30T02:35:48.214Z,100362.18
2018-08-30T02:38:16.669Z,100357.80
2018-08-30T02:40:45.094Z,100359.20
2018-08-30T02:43:13.519Z,100360.57
2018-08-30T02:45:41.938Z,100355.94
2018-08-30T02:48:10.395Z,100357.84
2018-08-30T02:50:38.814Z,100366.28
2018-08-30T02:53:07.890Z,100364.67
2018-08-30T02:55:36.329Z,100364.38
2018-08-30T02:58:04.806Z,100369.55
2018-08-30T03:00:33.185Z,100370.66
2018-08-30T03:03:01.606Z,100370.62
2018-08-30T03:05:29.993Z,100369.27
2018-08-30T03:07:58.370Z,100365.73
2018-08-30T03:10:26.771Z,100367.10
2018-08-30T03:12:55.198Z,100364.62
2018-08-30T03:15:23.576Z,100364.63
2018-08-30T03:17:51.938Z,100366.58
2018-08-30T03:20:20.397Z,100364.67
2018-08-30T03:22:48.758Z,100378.57
2018-08-30T03:25:17.189Z,100375.55
2018-08-30T03:27:45.630Z,100383.21
2018-08-30T03:30:14.116Z,100386.49
2018-08-30T03:32:42.380Z,100379.12
2018-08-30T03:35:10.765Z,100390.04
2018-08-30T03:37:39.162Z,100390.87
2018-08-30T03:40:07.603Z,100385.39
2018-08-30T03:42:36.019Z,100385.13
2018-08-30T03:45:04.432Z,100389.80
2018-08-30T03:47:32.789Z,100393.06
2018-08-30T03:50:01.183Z,100402.34
2018-08-30T03:52:29.562Z,100396.34
2018-08-30T03:54:57.978Z,100402.34
2018-08-30T03:57:26.374Z,100401.81
2018-08-30T03:59:54.777Z,100408.88
2018-08-30T04:02:23.165Z,100398.00
2018-08-30T04:04:51.581Z,100406.19
2018-08-30T04:07:19.979Z,100408.34
2018-08-30T04:09:48.445Z,100411.91
2018-08-30T04:12:16.782Z,100416.54
2018-08-30T04:14:45.171Z,100417.66
2018-08-30T04:17:13.584Z,100420.64
2018-08-30T04:19:42.051Z,100415.17
2018-08-30T04:22:10.483Z,100423.12
2018-08-30T04:24:38.912Z,100422.00
2018-08-30T04:27:07.338Z,100432.39
2018-08-30T04:29:35.778Z,100435.38
2018-08-30T04:32:04.290Z,100429.38
2018-08-30T04:34:32.685Z,100430.45
2018-08-30T04:37:01.069Z,100436.23
2018-08-30T04:39:29.489Z,100431.02
2018-08-30T04:41:57.914Z,100440.84
2018-08-30T04:44:26.323Z,100439.22
2018-08-30T04:46:54.688Z,100440.58
2018-08-30T04:49:23.088Z,100443.03
2018-08-30T04:51:51.477Z,100441.95
2018-08-30T04:54:19.903Z,100441.95
2018-08-30T04:56:48.353Z,100446.87
2018-08-30T04:59:16.802Z,100446.88
2018-08-30T05:01:45.234Z,100452.89
2018-08-30T05:04:13.644Z,100457.55
2018-08-30T05:06:42.017Z,100453.45
2018-08-30T05:09:11.778Z,100457.80
2018-08-30T05:11:40.252Z,100469.02
2018-08-30T05:14:09.040Z,100468.98
2018-08-30T05:16:37.829Z,100473.38
2018-08-30T05:19:06.309Z,100469.81
2018-08-30T05:21:35.172Z,100472.00
2018-08-30T05:24:03.592Z,100477.18
2018-08-30T05:26:32.007Z,100472.25
2018-08-30T05:29:00.377Z,100478.00
2018-08-30T05:31:28.760Z,100485.09
2018-08-30T05:33:57.136Z,100482.89
2018-08-30T05:36:25.542Z,100485.08
2018-08-30T05:38:54.013Z,100478.53
2018-08-30T05:41:22.400Z,100484.55
2018-08-30T05:43:50.797Z,100488.11
2018-08-30T05:46:19.255Z,100490.84
2018-08-30T05:48:47.652Z,100487.53
2018-08-30T05:51:16.058Z,100484.80
2018-08-30T05:53:44.460Z,100487.27
2018-08-30T05:56:12.945Z,100496.26
2018-08-30T05:58:41.381Z,100492.70
2018-08-30T06:01:09.862Z,100501.96
2018-08-30T06:03:38.274Z,100500.88
2018-08-30T06:06:06.735Z,100495.41
2018-08-30T06:08:35.151Z,100492.13
2018-08-30T06:11:03.608Z,100498.67
2018-08-30T06:13:32.023Z,100507.41
2018-08-30T06:16:00.488Z,100501.87
2018-08-30T06:18:28.964Z,100503.84
2018-08-30T06:20:57.385Z,100507.66
2018-08-30T06:23:25.803Z,100515.86
2018-08-30T06:25:54.249Z,100520.47
2018-08-30T06:28:22.677Z,100524.03
2018-08-30T06:30:51.148Z,100515.00
2018-08-30T06:33:19.637Z,100524.29
2018-08-30T06:35:48.118Z,100530.81
2018-08-30T06:38:16.530Z,100524.80
2018-08-30T06:40:46.687Z,100530.83
2018-08-30T06:43:26.613Z,100535.16
2018-08-30T06:46:10.339Z,100526.70
2018-08-30T06:51:16.605Z,100533.77
2018-08-30T06:53:45.705Z,100533.83
2018-08-30T06:56:15.503Z,100538.72
2018-08-30T07:01:37.585Z,100539.45
2018-08-30T07:04:07.103Z,100542.97
2018-08-30T07:06:43.982Z,100538.32
2018-08-30T07:09:13.862Z,100535.05
2018-08-30T07:14:23.813Z,100546.60
2018-08-30T07:16:52.369Z,100545.17
2018-08-30T07:19:20.805Z,100551.19
2018-08-30T07:21:49.314Z,100557.80
2018-08-30T07:24:17.861Z,100561.64
2018-08-30T07:26:46.278Z,100558.55
2018-08-30T07:29:14.737Z,100569.72
2018-08-30T07:31:43.193Z,100569.64
2018-08-30T07:34:11.648Z,100566.59
2018-08-30T07:36:40.101Z,100567.37
2018-08-30T07:39:10.173Z,100565.58
2018-08-30T07:41:38.653Z,100570.50
2018-08-30T07:44:07.437Z,100576.33
2018-08-30T07:46:35.889Z,100574.92
2018-08-30T07:49:04.349Z,100586.48
2018-08-30T07:51:32.793Z,100587.88
2018-08-30T07:54:01.261Z,100586.15
2018-08-30T07:56:29.669Z,100585.20
2018-08-30T07:58:58.196Z,100580.41
2018-08-30T08:01:26.617Z,100553.03
2018-08-30T08:03:56.084Z,100587.89
2018-08-30T08:06:24.522Z,100587.22
2018-08-30T08:08:52.904Z,100580.98
2018-08-30T08:11:21.299Z,100596.17
2018-08-30T08:13:49.711Z,100596.74
2018-08-30T08:16:18.103Z,100589.17
2018-08-30T08:18:47.012Z,100601.95
2018-08-30T08:21:15.415Z,100592.28
2018-08-30T08:23:44.910Z,100608.33
2018-08-30T08:26:13.304Z,100614.23
2018-08-30T08:28:41.745Z,100613.23
2018-08-30T08:31:10.440Z,100613.73
2018-08-30T08:33:38.958Z,100607.15
2018-08-30T08:36:07.397Z,100610.63
2018-08-30T08:38:35.866Z,100614.78
2018-08-30T08:41:04.256Z,100614.44
2018-08-30T08:43:32.640Z,100617.04
2018-08-30T08:46:01.043Z,100616.00
2018-08-30T08:48:29.433Z,100623.05
2018-08-30T08:50:57.816Z,100616.37
2018-08-30T08:53:26.257Z,100624.81
2018-08-30T08:55:54.653Z,100624.59
2018-08-30T08:58:23.081Z,100624.08
2018-08-30T09:00:51.464Z,100624.58
2018-08-30T09:03:19.897Z,100626.95
2018-08-30T09:05:48.272Z,100625.98
2018-08-30T09:08:16.649Z,100621.46
2018-08-30T09:10:45.064Z,100630.59
2018-08-30T09:13:13.498Z,100624.30
2018-08-30T09:15:41.891Z,100619.89
2018-08-30T09:18:10.381Z,100621.45
2018-08-30T09:20:38.782Z,100620.31
2018-08-30T09:23:07.258Z,100623.14
2018-08-30T09:25:36.032Z,100624.66
2018-08-30T09:28:04.425Z,100626.73
2018-08-30T09:30:32.805Z,100629.25
2018-08-30T09:33:01.233Z,100635.57
2018-08-30T09:35:29.625Z,100637.37
2018-08-30T09:37:58.049Z,100634.13
2018-08-30T09:40:26.409Z,100627.66
2018-08-30T09:42:54.890Z,100638.59
2018-08-30T09:45:23.277Z,100640.52
2018-08-30T09:47:51.669Z,100641.92
2018-08-30T09:50:20.050Z,100631.94
2018-08-30T10:09:48.491Z,100636.98
2018-08-30T10:12:16.945Z,100641.08
2018-08-30T10:14:47.222Z,100639.89
2018-08-30T10:17:15.697Z,100643.23
2018-08-30T10:19:44.126Z,100643.92
2018-08-30T10:22:12.569Z,100645.55
2018-08-30T10:24:41.073Z,100647.40
2018-08-30T10:27:09.480Z,100638.77
2018-08-30T10:29:37.910Z,100644.12
2018-08-30T10:32:06.417Z,100638.32
2018-08-30T10:34:34.823Z,100647.06
2018-08-30T10:37:03.258Z,100646.84
2018-08-30T10:39:31.638Z,100648.73
2018-08-30T10:42:00.050Z,100641.89
2018-08-30T10:44:28.474Z,100634.57
2018-08-30T10:46:56.882Z,100638.70
2018-08-30T10:49:25.390Z,100646.38
2018-08-30T10:51:53.756Z,100638.55
2018-08-30T10:54:22.236Z,100640.30
2018-08-30T10:56:50.796Z,100645.59
2018-08-30T10:59:19.249Z,100648.71
2018-08-30T11:01:47.756Z,100652.08
2018-08-30T11:04:16.165Z,100639.37
2018-08-30T11:06:44.694Z,100648.69
2018-08-30T11:09:13.108Z,100657.37
2018-08-30T11:11:41.587Z,100661.59
2018-08-30T11:14:10.026Z,100652.66
2018-08-30T11:16:48.320Z,100653.69
2018-08-30T11:19:16.727Z,100651.78
2018-08-30T11:21:45.153Z,100651.16
2018-08-30T11:24:13.614Z,100653.98
2018-08-30T11:26:41.993Z,100650.59
2018-08-30T11:29:10.453Z,100650.36
2018-08-30T11:31:38.830Z,100626.94
2018-08-30T11:34:07.547Z,100644.43
2018-08-30T11:36:42.322Z,100647.73
2018-08-30T11:39:10.800Z,100635.50
2018-08-30T11:41:39.438Z,100660.24
2018-08-30T11:44:08.241Z,100648.34
2018-08-30T11:46:37.162Z,100652.84
2018-08-30T11:49:05.677Z,100653.45
2018-08-30T11:51:34.092Z,100658.73
2018-08-30T11:54:02.574Z,100661.05
2018-08-30T11:56:31.037Z,100656.94
2018-08-30T11:58:59.448Z,100663.05
2018-08-30T12:01:27.887Z,100660.19
2018-08-30T12:03:58.254Z,100659.77
2018-08-30T12:06:26.785Z,100660.17
2018-08-30T12:08:55.372Z,100660.56
2018-08-30T12:11:23.984Z,100680.13
2018-08-30T12:13:52.394Z,100676.16
2018-08-30T12:16:20.793Z,100662.62
2018-08-30T12:18:49.198Z,100663.72
2018-08-30T12:21:17.693Z,100681.81
2018-08-30T12:23:46.183Z,100674.23
2018-08-30T12:26:14.609Z,100682.56
2018-08-30T12:28:43.080Z,100681.25
2018-08-30T12:31:11.582Z,100665.66
2018-08-30T12:33:40.061Z,100670.81
2018-08-30T12:36:08.732Z,100681.58
2018-08-30T12:38:37.174Z,100679.05
2018-08-30T12:41:05.606Z,100687.95
2018-08-30T12:43:34.191Z,100675.85
2018-08-30T12:46:02.524Z,100672.89
2018-08-30T12:48:31.059Z,100676.45
2018-08-30T12:50:59.639Z,100680.31
2018-08-30T12:53:27.936Z,100671.20
2018-08-30T12:55:57.045Z,100676.38
2018-08-30T12:58:25.725Z,100672.16
2018-08-30T13:00:54.129Z,100673.77
2018-08-30T13:03:22.652Z,100685.16
2018-08-30T13:05:51.227Z,100678.02
2018-08-30T13:08:19.644Z,100675.67
2018-08-30T13:10:53.280Z,100676.91
2018-08-30T13:13:22.332Z,100679.66
2018-08-30T13:15:50.975Z,100675.84
2018-08-30T13:18:19.690Z,100678.19
2018-08-30T13:20:48.570Z,100672.65
2018-08-30T13:23:17.557Z,100676.02
2018-08-30T13:25:46.337Z,100678.98
2018-08-30T13:45:57.098Z,100668.52
2018-08-30T13:48:25.537Z,100674.72
2018-08-30T13:50:53.997Z,100668.55
2018-08-30T13:53:22.289Z,100657.81
2018-08-30T14:08:46.373Z,100674.20
2018-08-30T14:11:14.891Z,100674.44
2018-08-30T14:13:43.183Z,100678.11
2018-08-30T14:16:12.087Z,100668.95
2018-08-30T14:18:40.513Z,100676.30
2018-08-30T14:21:09.022Z,100676.20
2018-08-30T14:23:37.465Z,100672.03
2018-08-30T14:26:05.957Z,100668.00
2018-08-30T14:28:34.467Z,100669.97
2018-08-30T14:31:02.863Z,100648.22
2018-08-30T14:33:31.257Z,100670.83
2018-08-30T14:35:59.679Z,100677.47
2018-08-30T14:38:28.244Z,100663.67
2018-08-30T14:40:56.750Z,100679.22
2018-08-30T14:43:25.066Z,100669.75
2018-08-30T14:45:53.522Z,100667.58
2018-08-30T14:48:22.095Z,100669.41
2018-08-30T14:50:56.545Z,100671.28
2018-08-30T14:53:25.256Z,100661.81
2018-08-30T14:55:53.544Z,100660.74
2018-08-30T14:58:21.961Z,100668.98
2018-08-30T15:00:50.415Z,100665.73
2018-08-30T15:03:18.816Z,100667.03
2018-08-30T15:05:47.276Z,100668.10
2018-08-30T15:08:15.654Z,100661.97
2018-08-30T15:10:44.097Z,100667.48
2018-08-30T15:13:12.558Z,100658.04
2018-08-30T15:15:41.043Z,100666.27
2018-08-30T15:18:11.665Z,100671.86
2018-08-30T15:20:40.094Z,100665.84
2018-08-30T15:23:09.277Z,100667.13
2018-08-30T15:25:37.715Z,100670.91
2018-08-30T15:28:06.685Z,100665.25
2018-08-30T15:30:35.124Z,100674.19
2018-08-30T15:33:03.529Z,100679.14
2018-08-30T15:35:31.984Z,100668.88
2018-08-30T15:38:00.446Z,100668.88
2018-08-30T15:40:28.914Z,100676.45
2018-08-30T15:42:57.373Z,100678.57
2018-08-30T15:45:25.800Z,100684.66
2018-08-30T15:47:54.269Z,100678.48
2018-08-30T15:50:22.747Z,100681.70
2018-08-30T15:52:51.180Z,100668.61
2018-08-30T15:55:19.586Z,100670.05
2018-08-30T15:57:48.356Z,100680.31
2018-08-30T16:00:17.306Z,100680.14
2018-08-30T16:02:46.566Z,100674.14
2018-08-30T16:05:15.209Z,100677.89
2018-08-30T16:07:44.213Z,100679.48
2018-08-30T16:10:13.731Z,100682.27
2018-08-30T16:12:42.121Z,100671.31
2018-08-30T16:15:10.601Z,100678.38
2018-08-30T16:17:39.056Z,100674.09
2018-08-30T16:20:07.517Z,100677.81
2018-08-30T16:22:52.816Z,100675.42
2018-08-30T16:25:21.230Z,100668.23
2018-08-30T16:27:49.655Z,100676.95
2018-08-30T16:30:18.146Z,100676.41
2018-08-30T16:32:46.626Z,100673.81
2018-08-30T16:35:15.110Z,100674.84
2018-08-30T16:37:43.545Z,100681.02
2018-08-30T16:40:11.995Z,100668.61
2018-08-30T16:42:40.441Z,100671.13
2018-08-30T16:45:09.010Z,100667.95
2018-08-30T16:47:37.453Z,100670.34
2018-08-30T16:50:06.149Z,100671.98
2018-08-30T16:52:34.569Z,100670.70
2018-08-30T16:55:03.157Z,100672.96
2018-08-30T16:57:31.453Z,100666.48
2018-08-30T16:59:59.972Z,100671.48
2018-08-30T17:02:28.764Z,100671.48
2018-08-30T17:05:10.153Z,100667.20
2018-08-30T17:07:38.584Z,100659.91
2018-08-30T17:10:07.234Z,100667.59
2018-08-30T17:12:35.700Z,100670.24
2018-08-30T17:15:04.680Z,100669.73
2018-08-30T17:17:33.288Z,100669.73
2018-08-30T17:20:01.788Z,100665.88
2018-08-30T17:22:30.285Z,100668.86
2018-08-30T17:24:58.675Z,100659.67
2018-08-30T17:27:27.093Z,100664.45
2018-08-30T17:29:59.192Z,100661.38
2018-08-30T17:32:27.625Z,100660.00
2018-08-30T17:34:56.456Z,100665.59
2018-08-30T17:37:24.905Z,100667.59
2018-08-30T17:39:53.329Z,100668.20
2018-08-30T17:42:21.772Z,100667.69
2018-08-30T17:44:50.300Z,100667.57
2018-08-30T17:47:18.712Z,100663.13
2018-08-30T17:49:55.183Z,100662.80
2018-08-30T17:52:23.702Z,100670.33
2018-08-30T17:54:52.417Z,100669.30
2018-08-30T17:57:20.889Z,100666.72
2018-08-30T17:59:49.457Z,100670.50
2018-08-30T18:02:17.868Z,100670.38
2018-08-30T18:04:46.409Z,100671.17
2018-08-30T18:07:14.958Z,100674.84
2018-08-30T18:09:43.298Z,100678.88
2018-08-30T18:12:11.738Z,100675.17
2018-08-30T18:14:40.186Z,100680.19
2018-08-30T18:17:08.625Z,100676.47
2018-08-30T18:19:37.494Z,100674.96
2018-08-30T18:22:06.341Z,100662.75
2018-08-30T18:24:34.809Z,100682.28
2018-08-30T18:27:03.353Z,100688.40
2018-08-30T18:29:31.769Z,100683.00
2018-08-30T18:32:02.361Z,100689.33
2018-08-30T18:34:30.795Z,100691.05
2018-08-30T18:36:59.257Z,100690.01
2018-08-30T18:39:27.690Z,100698.59
2018-08-30T18:41:56.202Z,100701.88
2018-08-30T18:44:24.710Z,100704.70
2018-08-30T18:46:53.133Z,100713.78
2018-08-30T18:49:21.615Z,100714.89
2018-08-30T18:51:50.050Z,100710.83
2018-08-30T18:54:18.474Z,100715.22
2018-08-30T18:56:46.883Z,100712.53
2018-08-30T18:59:15.325Z,100709.53
2018-08-30T19:01:43.752Z,100715.61
2018-08-30T19:04:12.210Z,100714.84
2018-08-30T19:06:40.589Z,100725.59
2018-08-30T19:09:10.597Z,100724.52
2018-08-30T19:11:39.120Z,100722.09
2018-08-30T19:14:07.895Z,100727.83
2018-08-30T19:16:41.573Z,100728.95
2018-08-30T19:19:18.687Z,100733.06
2018-08-30T19:21:47.129Z,100733.58
2018-08-30T19:24:21.630Z,100728.34
2018-08-30T19:26:50.277Z,100734.41
2018-08-30T19:29:18.940Z,100734.67
2018-08-30T19:31:47.361Z,100731.41
2018-08-30T19:34:15.990Z,100735.25
2018-08-30T19:36:44.332Z,100734.72
2018-08-30T19:39:13.229Z,100740.19
2018-08-30T19:41:41.787Z,100737.19
2018-08-30T19:44:10.661Z,100740.75
2018-08-30T19:46:39.085Z,100735.55
2018-08-30T19:49:07.583Z,100739.94
2018-08-30T19:51:36.038Z,100747.27
2018-08-30T19:54:04.529Z,100739.66
2018-08-30T19:56:32.974Z,100739.38
2018-08-30T19:59:01.436Z,100738.30
2018-08-30T20:01:29.915Z,100737.73
2018-08-30T20:03:58.401Z,100744.05
2018-08-30T20:06:26.821Z,100742.41
2018-08-30T20:08:55.245Z,100735.84
2018-08-30T20:11:23.905Z,100737.47
2018-08-30T20:13:52.369Z,100736.63
2018-08-30T20:16:20.822Z,100735.81
2018-08-30T20:18:49.277Z,100730.36
2018-08-30T20:21:17.729Z,100728.42
2018-08-30T20:23:46.158Z,100737.46
2018-08-30T20:26:14.590Z,100737.45
2018-08-30T20:28:43.045Z,100740.47
2018-08-30T20:31:11.501Z,100735.27
2018-08-30T20:33:39.941Z,100730.88
2018-08-30T20:36:08.402Z,100738.27
2018-08-30T20:38:36.893Z,100742.37
2018-08-30T20:41:05.429Z,100743.99
2018-08-30T20:43:33.899Z,100751.05
2018-08-30T20:46:02.359Z,100743.42
2018-08-30T20:48:30.818Z,100751.31
2018-08-30T20:50:59.304Z,100747.75
2018-08-30T20:53:27.795Z,100752.39
2018-08-30T20:55:56.310Z,100747.19
2018-08-30T20:58:24.878Z,100753.48
2018-08-30T21:00:53.385Z,100751.83
2018-08-30T21:03:21.880Z,100750.73
2018-08-30T21:05:50.569Z,100756.45
2018-08-30T21:08:19.075Z,100759.44
2018-08-30T21:10:47.723Z,100753.16
2018-08-30T21:13:16.159Z,100753.39
2018-08-30T21:15:44.643Z,100750.63
2018-08-30T21:18:13.194Z,100750.66
2018-08-30T21:20:42.627Z,100750.65
2018-08-30T21:23:11.213Z,100752.27
2018-08-30T21:25:39.645Z,100757.17
2018-08-30T21:28:08.037Z,100747.58
2018-08-30T21:30:36.842Z,100749.48
2018-08-30T21:33:05.508Z,100757.40
2018-08-30T21:35:33.986Z,100750.51
2018-08-30T21:38:02.445Z,100762.20
2018-08-30T21:40:30.950Z,100761.64
2018-08-30T21:42:59.391Z,100759.16
2018-08-30T21:45:27.838Z,100756.66
2018-08-30T21:47:56.253Z,100752.78
2018-08-30T21:50:24.717Z,100765.53
2018-08-30T21:52:53.165Z,100758.69
2018-08-30T21:55:21.624Z,100763.31
2018-08-30T21:57:50.071Z,100766.88
2018-08-30T22:00:18.614Z,100768.23
2018-08-30T22:02:47.162Z,100768.51
2018-08-30T22:05:15.595Z,100763.59
2018-08-30T22:07:44.017Z,100766.27
2018-08-30T22:10:12.489Z,100765.39
2018-08-30T22:12:40.906Z,100764.58
2018-08-30T22:15:09.377Z,100765.11
2018-08-30T22:17:38.432Z,100768.91
2018-08-30T22:20:06.897Z,100772.13
2018-08-30T22:22:35.352Z,100770.17
2018-08-30T22:25:03.958Z,100766.06
2018-08-30T22:27:32.448Z,100766.02
2018-08-30T22:30:01.642Z,100769.49
2018-08-30T22:32:30.037Z,100770.55
2018-08-30T22:34:58.469Z,100772.67
2018-08-30T22:37:26.893Z,100772.41
2018-08-30T22:39:55.301Z,100777.56
2018-08-30T22:42:23.723Z,100773.15
2018-08-30T22:44:52.150Z,100767.40
2018-08-30T22:47:20.545Z,100766.03
2018-08-30T22:49:49.001Z,100766.09
2018-08-30T22:52:17.712Z,100766.68
2018-08-30T22:54:47.279Z,100759.81
2018-08-30T22:57:15.721Z,100757.66
2018-08-30T22:59:44.234Z,100758.19
2018-08-30T23:02:12.662Z,100750.55
2018-08-30T23:04:41.114Z,100755.70
2018-08-30T23:07:09.545Z,100755.11
2018-08-30T23:09:38.062Z,100761.00
2018-08-30T23:12:06.826Z,100759.82
2018-08-30T23:14:35.318Z,100763.25
2018-08-30T23:17:04.448Z,100766.27
2018-08-30T23:19:32.898Z,100766.53
2018-08-30T23:22:01.361Z,100766.77
2018-08-30T23:24:29.808Z,100764.61
2018-08-30T23:26:58.277Z,100765.94
2018-08-30T23:29:26.703Z,100759.36
2018-08-30T23:31:55.182Z,100766.34
2018-08-30T23:34:23.646Z,100766.61
2018-08-30T23:36:52.091Z,100758.67
2018-08-30T23:39:20.526Z,100760.59
2018-08-30T23:41:48.954Z,100758.17
2018-08-30T23:44:17.436Z,100761.75
2018-08-30T23:46:45.873Z,100762.91
2018-08-30T23:49:14.363Z,100768.13
2018-08-30T23:51:42.846Z,100763.22
2018-08-30T23:54:11.264Z,100764.64
2018-08-30T23:56:39.702Z,100767.06
2018-08-30T23:59:19.233Z,100765.67
